ジュノー の空港の天気 - METARとTAF

ジュノー国際空港 ( PAJN / JNU ) - アメリカ アラスカ州ジュノー
飛行場実況気象(Metar)
観測時間02/17 05:53 AKST (02/17 14:53 UTC)
風向・風速北西 2m/s
視程10km以上
天気現象
全天の8割程度の雲 雲底高度 3050m
気温-11.7℃
湿度84%
気圧1032.9hPa
METARPAJN 171453Z 31004KT 10SM BKN100 M12/M14 A3050 RMK AO2 SLP329 T11171139 58002 $
過去の天気等 Google飛行場航空写真 Wunderground天気予報

過去48時間のMETAR

飛行場予報(TAF)
発表時間: 2/17 02:29 AKST (2/17 11:29 UTC)
予報対象時間: 17日3時 AKST ~ 18日3時 AKST
風向・風速不定 2m/s
視程10km以上
全天を覆う雲 雲底高度 6710m
17日12時 AKST から
風向・風速東 4m/s
視程10km以上
全天の8割程度の雲 雲底高度 2440m
全天を覆う雲 雲底高度 6100m
17日20時 AKST から
風向・風速東 3m/s
視程10km以上
天気現象弱い雪 もや
全天の4割程度の雲 雲底高度 610m
全天を覆う雲 雲底高度 1220m
17日23時 AKST から
風向・風速東 4m/s
視程3220m
天気現象弱い雪 もや
全天の4割程度の雲 雲底高度 180m
全天の8割程度の雲 雲底高度 370m
全天を覆う雲 雲底高度 610m
18日0時 AKST から 確率 30% で
視程800m
天気現象雪 霧
全天を覆う雲 雲底高度 240m
PAJN 171129Z 1712/1812 VRB04KT P6SM OVC220
FM172100 10007KT P6SM BKN080 OVC200
FM180500 09006KT 6SM -SN BR SCT020 OVC040
FM180800 10008KT 2SM -SN BR SCT006 BKN012 OVC020
PROB30 1809/1812 1/2SM SN FG OVC008